Time;durP1;ratioP1;P1;durP2;ratioP2;P2;SDS_P1;SDS_P2;PMS_P1;PMS_P2;Temp;Humidity;BMP_temperature;BMP_pressure;BME280_temperature;BME280_humidity;BME280_pressure;Samples;Min_cycle;Max_cycle;Signal;HPM_P1;HPM_P2
2022/03/10 00:00:00;;;;;;;22.08;14.27;;;7.00;81.70;;;;;;4976370;28;20509;-82
2022/03/10 00:02:26;;;;;;;22.40;13.65;;;7.00;81.70;;;;;;4976389;28;20022;-82
2022/03/10 00:04:52;;;;;;;24.55;13.40;;;7.00;81.70;;;;;;4993840;28;20023;-82
2022/03/10 00:07:17;;;;;;;21.75;13.88;;;7.00;81.80;;;;;;4976417;28;20038;-82
2022/03/10 00:09:43;;;;;;;20.95;13.30;;;6.90;81.70;;;;;;4976386;28;20061;-82
2022/03/10 00:12:09;;;;;;;23.55;14.20;;;6.90;81.80;;;;;;4994090;28;20452;-82
2022/03/10 00:14:35;;;;;;;22.92;13.80;;;6.90;81.80;;;;;;4976333;28;20101;-82
2022/03/10 00:17:02;;;;;;;25.58;15.45;;;6.90;81.90;;;;;;4976377;28;20030;-82
2022/03/10 00:19:27;;;;;;;21.70;13.63;;;6.90;81.90;;;;;;4975967;28;20049;-82
2022/03/10 00:21:53;;;;;;;27.95;14.90;;;6.90;82.00;;;;;;4976831;28;20027;-82
2022/03/10 00:24:19;;;;;;;24.65;13.98;;;6.90;82.00;;;;;;4976257;28;20019;-82
2022/03/10 00:26:45;;;;;;;25.00;14.73;;;6.90;82.00;;;;;;4976303;28;20081;-82
2022/03/10 00:29:11;;;;;;;23.90;14.80;;;6.90;82.00;;;;;;4993691;28;20406;-82
2022/03/10 00:31:37;;;;;;;25.25;14.20;;;6.90;82.00;;;;;;4993630;28;20046;-80
2022/03/10 00:34:03;;;;;;;26.17;14.50;;;6.80;82.00;;;;;;4976134;28;20110;-82
2022/03/10 00:36:29;;;;;;;25.75;14.55;;;6.80;82.70;;;;;;4976177;28;20474;-82
2022/03/10 00:38:54;;;;;;;22.00;14.18;;;6.80;82.00;;;;;;4976131;28;20029;-82
2022/03/10 00:41:20;;;;;;;25.48;13.98;;;6.80;82.10;;;;;;4975997;28;20029;-82
2022/03/10 00:43:46;;;;;;;25.38;14.65;;;6.80;82.10;;;;;;4975940;28;20085;-81
2022/03/10 00:46:12;;;;;;;24.10;14.80;;;6.80;82.10;;;;;;4975966;28;20493;-82
2022/03/10 00:48:38;;;;;;;22.75;13.85;;;6.80;82.10;;;;;;4976062;28;20374;-82
2022/03/10 00:51:05;;;;;;;23.60;14.32;;;6.80;82.10;;;;;;4976045;28;20023;-82
2022/03/10 00:53:30;;;;;;;24.85;13.88;;;6.80;82.20;;;;;;4975969;28;20088;-82
2022/03/10 00:55:56;;;;;;;25.17;14.65;;;6.80;82.20;;;;;;4993347;28;20109;-82
2022/03/10 00:58:22;;;;;;;23.73;14.23;;;6.70;82.20;;;;;;4975919;28;20030;-82
2022/03/10 01:00:48;;;;;;;25.40;14.13;;;6.80;82.20;;;;;;4975808;28;20545;-82
2022/03/10 01:03:14;;;;;;;23.23;13.45;;;6.70;82.20;;;;;;4975849;28;20050;-82
2022/03/10 01:05:40;;;;;;;22.95;13.43;;;6.70;82.20;;;;;;4977919;28;20030;-82
2022/03/10 01:08:06;;;;;;;24.58;14.45;;;6.70;82.20;;;;;;4979474;28;20166;-82
2022/03/10 01:10:32;;;;;;;22.27;14.57;;;6.70;82.30;;;;;;4979370;28;20022;-82
2022/03/10 01:12:58;;;;;;;24.50;14.32;;;6.70;82.30;;;;;;4979291;28;20062;-82
2022/03/10 01:15:25;;;;;;;21.13;13.27;;;6.70;82.30;;;;;;4979308;28;20026;-82
2022/03/10 01:17:52;;;;;;;22.83;14.13;;;6.70;82.50;;;;;;4979872;28;20440;-82
2022/03/10 01:20:19;;;;;;;27.10;14.95;;;6.70;82.40;;;;;;4978924;28;20497;-82
2022/03/10 01:22:46;;;;;;;24.00;13.23;;;6.70;82.50;;;;;;4979162;28;20023;-82
2022/03/10 01:25:12;;;;;;;24.55;14.02;;;6.70;82.40;;;;;;4996663;28;20023;-82
2022/03/10 01:27:38;;;;;;;24.30;14.25;;;6.70;82.40;;;;;;4979136;28;20485;-82
2022/03/10 01:30:05;;;;;;;24.05;14.98;;;6.70;82.50;;;;;;4979166;28;20034;-82
2022/03/10 01:32:31;;;;;;;22.20;14.18;;;6.60;82.50;;;;;;4979080;28;20026;-82
2022/03/10 01:34:57;;;;;;;21.45;13.52;;;6.60;82.50;;;;;;4979238;28;20146;-82
2022/03/10 01:37:22;;;;;;;23.20;13.77;;;6.60;82.50;;;;;;4996408;28;20022;-82
2022/03/10 01:39:48;;;;;;;24.48;13.82;;;6.60;82.60;;;;;;4996258;28;20504;-82
2022/03/10 01:42:14;;;;;;;24.60;14.82;;;6.60;82.60;;;;;;4996314;28;20057;-82
2022/03/10 01:44:40;;;;;;;20.73;13.70;;;6.60;82.60;;;;;;4978837;28;20382;-82
2022/03/10 01:47:06;;;;;;;22.02;13.93;;;6.60;82.60;;;;;;4978782;28;20470;-82
2022/03/10 01:49:35;;;;;;;24.55;15.13;;;6.60;82.60;;;;;;4978709;28;20454;-82
2022/03/10 01:52:01;;;;;;;25.17;14.25;;;6.60;82.60;;;;;;4978669;28;20028;-82
2022/03/10 01:54:27;;;;;;;22.27;14.13;;;6.50;83.40;;;;;;4996117;28;20041;-82
2022/03/10 01:56:53;;;;;;;24.13;14.02;;;6.50;82.70;;;;;;4978673;28;20026;-86
2022/03/10 01:59:20;;;;;;;23.10;14.13;;;6.50;82.60;;;;;;4978522;28;20031;-85
2022/03/10 02:01:46;;;;;;;22.60;14.68;;;6.50;82.70;;;;;;4978591;28;20034;-86
2022/03/10 02:04:12;;;;;;;22.80;14.07;;;6.50;82.80;;;;;;4978664;28;20077;-86
2022/03/10 02:06:38;;;;;;;22.40;13.30;;;6.50;82.80;;;;;;4978439;28;20019;-86
2022/03/10 02:11:49;;;;;;;24.30;14.27;;;6.50;82.80;;;;;;4996578;28;20080;-86
2022/03/10 02:19:44;;;;;;;22.98;14.18;;;6.50;82.90;;;;;;4995503;28;20163;-86
2022/03/10 02:22:11;;;;;;;26.40;14.38;;;6.50;83.00;;;;;;4978181;28;20515;-86
2022/03/10 02:24:39;;;;;;;23.27;13.13;;;6.50;83.10;;;;;;4978415;28;20074;-85
2022/03/10 02:27:20;;;;;;;22.83;14.25;;;6.40;83.00;;;;;;4978191;28;20022;-86
2022/03/10 02:29:51;;;;;;;22.50;14.07;;;6.40;83.00;;;;;;4978060;28;20038;-86
2022/03/10 02:32:18;;;;;;;21.77;13.80;;;6.40;83.00;;;;;;4977948;28;20134;-86
2022/03/10 02:34:44;;;;;;;23.52;12.68;;;6.40;83.10;;;;;;4977868;28;20477;-86
2022/03/10 02:37:11;;;;;;;25.80;14.00;;;6.40;83.10;;;;;;4995380;28;20108;-86
2022/03/10 02:39:38;;;;;;;26.02;13.70;;;6.40;83.10;;;;;;4977774;28;20034;-86
2022/03/10 02:42:04;;;;;;;23.23;14.18;;;6.40;83.10;;;;;;4995446;28;20390;-87
2022/03/10 02:44:30;;;;;;;22.88;14.25;;;6.40;83.10;;;;;;4977751;28;20019;-86
2022/03/10 02:46:56;;;;;;;24.50;13.82;;;6.40;83.20;;;;;;4995219;28;20038;-86
2022/03/10 02:49:22;;;;;;;23.75;13.38;;;6.40;83.20;;;;;;4977609;28;20478;-86
2022/03/10 02:51:48;;;;;;;21.80;14.00;;;6.30;83.10;;;;;;4977804;28;20064;-86
2022/03/10 02:54:14;;;;;;;24.35;13.93;;;6.30;83.20;;;;;;4995065;28;20462;-87
2022/03/10 02:56:40;;;;;;;21.65;13.63;;;6.30;83.20;;;;;;4977664;28;20022;-87
2022/03/10 02:59:05;;;;;;;24.83;14.05;;;6.30;83.20;;;;;;4977552;28;20026;-86
2022/03/10 03:01:31;;;;;;;21.00;13.00;;;6.30;83.30;;;;;;4977391;28;20386;-87
2022/03/10 03:03:57;;;;;;;22.92;13.80;;;6.30;83.40;;;;;;4977393;28;20026;-87
2022/03/10 03:06:23;;;;;;;20.92;13.20;;;6.30;83.40;;;;;;4977458;28;20105;-87
2022/03/10 03:08:49;;;;;;;23.50;14.05;;;6.30;83.30;;;;;;4977317;28;20022;-87
2022/03/10 03:11:14;;;;;;;21.40;13.52;;;6.30;83.30;;;;;;4977439;28;20023;-86
2022/03/10 03:13:41;;;;;;;21.58;12.80;;;6.30;83.40;;;;;;4994746;28;20023;-86
2022/03/10 03:16:07;;;;;;;26.92;13.70;;;6.30;83.50;;;;;;4977298;28;20066;-87
2022/03/10 03:18:32;;;;;;;20.17;13.13;;;6.20;83.30;;;;;;4994430;28;20053;-87
2022/03/10 03:20:58;;;;;;;22.60;14.30;;;6.20;83.40;;;;;;4977156;28;20035;-87
2022/03/10 03:23:24;;;;;;;25.27;13.73;;;6.20;83.40;;;;;;4977137;28;20061;-87
2022/03/10 03:25:51;;;;;;;20.55;13.20;;;6.20;83.50;;;;;;4977106;28;20022;-86
2022/03/10 03:28:17;;;;;;;20.05;13.40;;;6.20;83.60;;;;;;4993870;28;20027;-87
2022/03/10 03:30:43;;;;;;;23.75;13.60;;;6.20;83.60;;;;;;4994514;28;20149;-87
2022/03/10 03:33:09;;;;;;;23.35;13.77;;;6.20;83.60;;;;;;4977227;28;20494;-87
2022/03/10 03:35:34;;;;;;;26.63;14.40;;;6.20;83.60;;;;;;4976895;28;20026;-87
2022/03/10 03:38:00;;;;;;;21.30;13.57;;;6.20;83.60;;;;;;4976845;28;20022;-87
2022/03/10 03:40:26;;;;;;;21.95;13.77;;;6.20;83.60;;;;;;4994359;28;20109;-87
2022/03/10 03:42:52;;;;;;;20.92;13.88;;;6.20;83.60;;;;;;4976870;28;20538;-87
2022/03/10 03:45:18;;;;;;;21.98;13.40;;;6.20;83.60;;;;;;4976738;28;20069;-87
2022/03/10 03:47:43;;;;;;;22.92;13.40;;;6.10;83.60;;;;;;4976887;28;20054;-87
2022/03/10 03:50:10;;;;;;;25.58;13.93;;;6.10;83.80;;;;;;4976812;28;20033;-87
2022/03/10 03:52:36;;;;;;;24.92;13.60;;;6.10;83.70;;;;;;4994249;28;20442;-87
2022/03/10 03:55:02;;;;;;;20.23;12.98;;;6.10;83.90;;;;;;4976765;28;20026;-87
2022/03/10 03:57:28;;;;;;;24.95;13.48;;;6.10;83.80;;;;;;4994030;28;20038;-87
2022/03/10 03:59:53;;;;;;;22.10;14.38;;;6.10;83.70;;;;;;4994310;28;20059;-87
2022/03/10 04:02:19;;;;;;;23.17;14.30;;;6.10;83.70;;;;;;4976580;28;20050;-87
2022/03/10 04:04:45;;;;;;;20.48;12.77;;;6.10;83.90;;;;;;4976606;28;20026;-87
2022/03/10 04:07:10;;;;;;;23.80;14.00;;;6.10;83.90;;;;;;4976652;28;20023;-87
2022/03/10 04:09:36;;;;;;;23.05;14.13;;;6.10;83.70;;;;;;4976386;28;20038;-87
2022/03/10 04:12:03;;;;;;;21.98;13.48;;;6.00;83.80;;;;;;4976574;28;20538;-87
2022/03/10 04:14:28;;;;;;;22.90;14.13;;;6.00;83.90;;;;;;4976618;28;20030;-86
2022/03/10 04:16:54;;;;;;;19.77;12.70;;;6.00;83.90;;;;;;4976519;28;20470;-87
2022/03/10 04:19:20;;;;;;;22.27;14.52;;;6.00;83.80;;;;;;4993608;28;20085;-87
2022/03/10 04:21:46;;;;;;;23.45;13.77;;;6.00;83.80;;;;;;4976484;28;20057;-87
2022/03/10 04:24:11;;;;;;;24.52;13.95;;;6.00;83.90;;;;;;4994014;28;20054;-88
2022/03/10 04:26:38;;;;;;;23.60;13.80;;;6.00;83.80;;;;;;4993913;28;20027;-87
2022/03/10 04:29:04;;;;;;;23.50;13.40;;;6.00;83.90;;;;;;4976430;28;20058;-88
2022/03/10 04:31:30;;;;;;;20.15;12.60;;;6.00;84.10;;;;;;4976461;28;20062;-87
2022/03/10 04:33:55;;;;;;;23.73;13.90;;;6.00;84.00;;;;;;4976424;28;20089;-88
2022/03/10 04:36:22;;;;;;;23.67;14.52;;;6.00;84.00;;;;;;4976520;28;20031;-88
2022/03/10 04:38:47;;;;;;;21.25;13.15;;;5.90;84.00;;;;;;4977242;28;20442;-88
2022/03/10 04:41:13;;;;;;;22.60;13.80;;;5.90;84.00;;;;;;4980235;28;20022;-87
2022/03/10 04:43:39;;;;;;;20.73;13.07;;;5.90;84.10;;;;;;4980337;28;20069;-88
2022/03/10 04:46:04;;;;;;;21.60;13.50;;;5.90;84.10;;;;;;4979970;28;20053;-88
2022/03/10 04:48:30;;;;;;;23.23;13.57;;;5.90;84.10;;;;;;4997895;28;20109;-88
2022/03/10 04:50:56;;;;;;;21.33;13.57;;;5.90;84.00;;;;;;4997561;28;20034;-88
2022/03/10 04:53:22;;;;;;;23.77;14.13;;;5.90;84.20;;;;;;4980228;28;20036;-88
2022/03/10 04:55:47;;;;;;;24.20;13.98;;;5.90;84.10;;;;;;4980104;28;20054;-88
2022/03/10 04:58:14;;;;;;;21.67;13.00;;;5.90;84.20;;;;;;4980023;28;20081;-87
2022/03/10 05:00:39;;;;;;;23.75;13.70;;;5.90;84.10;;;;;;4979995;28;20053;-88
2022/03/10 05:03:05;;;;;;;23.67;13.45;;;5.80;84.10;;;;;;4981091;28;20022;-88
2022/03/10 05:05:31;;;;;;;21.83;13.75;;;5.80;84.10;;;;;;4980014;28;20030;-88
2022/03/10 05:07:56;;;;;;;22.05;14.18;;;5.90;84.20;;;;;;4980101;28;20030;-89
2022/03/10 05:10:22;;;;;;;24.33;14.20;;;5.80;84.20;;;;;;4997696;28;20097;-88
2022/03/10 05:12:49;;;;;;;22.88;13.48;;;5.80;85.00;;;;;;4997149;28;20101;-89
2022/03/10 05:15:23;;;;;;;21.65;13.93;;;5.80;84.20;;;;;;4997358;28;20508;-89
2022/03/10 05:17:49;;;;;;;20.77;13.73;;;5.80;84.30;;;;;;4979908;28;20030;-89
2022/03/10 05:20:15;;;;;;;23.05;13.23;;;5.80;84.40;;;;;;4979575;28;20051;-88
2022/03/10 05:22:52;;;;;;;23.63;13.90;;;5.80;84.50;;;;;;4997499;28;20023;-89
2022/03/10 05:25:20;;;;;;;24.75;14.15;;;5.80;84.50;;;;;;4979903;28;20363;-89
2022/03/10 05:27:47;;;;;;;22.95;13.35;;;5.80;84.50;;;;;;4979871;28;20058;-89
2022/03/10 05:30:13;;;;;;;24.25;13.05;;;5.80;84.40;;;;;;4997219;28;20457;-89
2022/03/10 05:32:40;;;;;;;21.88;13.23;;;5.70;84.40;;;;;;4979742;28;20026;-89
2022/03/10 05:35:08;;;;;;;20.08;13.10;;;5.70;84.30;;;;;;4979906;28;20034;-89
2022/03/10 05:37:38;;;;;;;19.40;12.18;;;5.70;84.50;;;;;;4979785;28;20033;-90
2022/03/10 05:40:08;;;;;;;23.33;13.48;;;5.70;84.50;;;;;;4979647;28;20026;-90
2022/03/10 05:42:37;;;;;;;25.33;13.82;;;5.70;84.30;;;;;;4979600;28;20030;-90
2022/03/10 05:45:03;;;;;;;23.35;13.48;;;5.70;84.50;;;;;;4979741;28;20019;-90
2022/03/10 05:47:29;;;;;;;24.65;14.23;;;5.70;84.40;;;;;;4979299;28;20019;-90
2022/03/10 05:49:54;;;;;;;20.85;13.40;;;5.70;84.40;;;;;;4979305;28;20077;-90
2022/03/10 05:52:20;;;;;;;22.98;13.70;;;5.70;84.40;;;;;;4978657;28;20081;-90
2022/03/10 05:54:46;;;;;;;21.55;13.75;;;5.70;84.50;;;;;;4979518;28;20580;-90
2022/03/10 05:57:11;;;;;;;23.17;14.15;;;5.70;84.50;;;;;;4996872;28;20470;-90
2022/03/10 05:59:37;;;;;;;23.23;13.57;;;5.60;84.50;;;;;;4979572;28;20030;-90
2022/03/10 06:02:03;;;;;;;21.52;13.82;;;5.60;85.00;;;;;;4996795;28;20027;-90
2022/03/10 06:04:28;;;;;;;21.55;13.35;;;5.60;84.40;;;;;;4979362;28;20030;-90
2022/03/10 06:06:54;;;;;;;21.63;14.07;;;5.60;84.50;;;;;;4996537;28;20022;-91
2022/03/10 06:09:20;;;;;;;23.17;14.25;;;5.60;84.60;;;;;;4979055;28;20390;-90
2022/03/10 06:11:45;;;;;;;22.60;13.75;;;5.60;84.60;;;;;;4979049;28;20122;-90
2022/03/10 06:14:11;;;;;;;25.80;13.70;;;5.60;84.70;;;;;;4979142;28;20019;-91
2022/03/10 06:16:38;;;;;;;25.50;14.52;;;5.60;84.50;;;;;;4979032;28;20027;-90
2022/03/10 06:19:04;;;;;;;23.75;13.55;;;5.70;84.60;;;;;;4978869;28;20093;-89
2022/03/10 06:21:29;;;;;;;22.70;13.65;;;5.70;84.60;;;;;;4978563;28;20034;-90
2022/03/10 06:23:55;;;;;;;24.48;13.90;;;5.70;84.50;;;;;;4978796;28;20053;-90
2022/03/10 06:26:21;;;;;;;21.30;13.52;;;5.70;84.40;;;;;;4979086;28;20143;-91
2022/03/10 06:28:47;;;;;;;24.05;14.77;;;5.80;84.50;;;;;;4996435;28;20048;-92
2022/03/10 06:31:13;;;;;;;22.58;13.95;;;5.80;84.50;;;;;;4979284;28;20121;-91
2022/03/10 06:33:38;;;;;;;25.52;15.38;;;5.80;84.40;;;;;;4978943;28;20054;-91
2022/03/10 06:36:05;;;;;;;26.05;14.88;;;5.90;84.30;;;;;;4996386;28;20061;-91
2022/03/10 06:38:32;;;;;;;27.52;16.17;;;5.90;84.20;;;;;;4979789;28;20057;-90
2022/03/10 06:40:58;;;;;;;26.52;15.85;;;6.00;84.10;;;;;;4978721;28;20026;-91
2022/03/10 06:43:23;;;;;;;26.45;16.33;;;6.00;83.90;;;;;;4995721;28;20049;-91
2022/03/10 06:45:49;;;;;;;25.08;16.08;;;6.10;83.70;;;;;;4978585;28;20117;-90
2022/03/10 06:48:15;;;;;;;27.10;15.35;;;6.20;83.70;;;;;;4978390;28;20030;-90
2022/03/10 06:50:41;;;;;;;28.48;16.05;;;6.30;83.50;;;;;;4978509;28;20026;-90
2022/03/10 06:53:06;;;;;;;27.65;16.27;;;6.40;83.30;;;;;;4978271;28;20085;-91
2022/03/10 06:55:32;;;;;;;26.92;16.85;;;6.40;82.90;;;;;;4978550;28;20030;-90
2022/03/10 06:57:58;;;;;;;27.55;15.13;;;6.50;82.70;;;;;;4995838;28;20030;-90
2022/03/10 07:00:24;;;;;;;25.67;15.77;;;6.60;82.40;;;;;;4978070;28;20100;-90
2022/03/10 07:02:52;;;;;;;22.58;14.63;;;6.70;82.20;;;;;;4978159;28;20058;-90
2022/03/10 07:05:18;;;;;;;25.45;14.88;;;6.80;82.10;;;;;;4978163;28;20105;-90
2022/03/10 07:07:44;;;;;;;24.80;15.07;;;6.80;81.90;;;;;;4978131;28;20054;-90
2022/03/10 07:10:10;;;;;;;26.67;14.90;;;6.90;81.80;;;;;;4995301;28;20080;-90
2022/03/10 07:12:39;;;;;;;24.13;14.75;;;7.00;81.70;;;;;;4977889;28;20026;-90
2022/03/10 07:15:06;;;;;;;24.95;15.63;;;7.00;81.60;;;;;;4977843;28;20026;-89
2022/03/10 07:17:31;;;;;;;24.38;14.80;;;7.10;81.60;;;;;;4978276;28;20053;-89
2022/03/10 07:19:57;;;;;;;24.08;15.38;;;7.10;81.40;;;;;;4977497;28;20133;-89
2022/03/10 07:22:23;;;;;;;24.15;14.27;;;7.10;81.30;;;;;;4977660;28;20394;-89
2022/03/10 07:24:49;;;;;;;21.80;13.60;;;7.20;81.30;;;;;;4977698;28;20090;-89
2022/03/10 07:27:15;;;;;;;25.67;15.02;;;7.20;81.30;;;;;;4977309;28;20118;-88
2022/03/10 07:29:40;;;;;;;24.02;14.75;;;7.20;81.30;;;;;;4977415;28;20022;-88
2022/03/10 07:32:06;;;;;;;25.08;14.82;;;7.20;81.40;;;;;;4977448;28;20033;-89
2022/03/10 07:34:32;;;;;;;21.33;14.20;;;7.20;81.50;;;;;;4994897;28;20071;-89
2022/03/10 07:36:58;;;;;;;25.13;15.18;;;7.20;81.50;;;;;;4977253;28;20504;-88
2022/03/10 07:39:24;;;;;;;23.45;14.52;;;7.20;81.50;;;;;;4977037;28;20082;-88
2022/03/10 07:41:50;;;;;;;25.83;14.52;;;7.30;81.40;;;;;;4977036;28;20489;-88
2022/03/10 07:44:15;;;;;;;24.13;15.07;;;7.40;81.40;;;;;;4977617;28;20050;-88
2022/03/10 07:46:41;;;;;;;24.00;14.35;;;7.40;81.30;;;;;;4977057;28;20022;-88
2022/03/10 07:49:08;;;;;;;22.63;14.43;;;7.50;81.30;;;;;;4977048;28;20525;-88
2022/03/10 07:51:34;;;;;;;22.73;14.13;;;7.50;81.20;;;;;;4994336;28;20072;-88
2022/03/10 07:54:00;;;;;;;24.60;14.23;;;7.60;81.10;;;;;;4994600;28;20533;-88
2022/03/10 07:56:26;;;;;;;22.90;14.18;;;7.70;81.10;;;;;;4976768;28;20398;-88
2022/03/10 07:58:52;;;;;;;23.33;14.82;;;7.70;81.00;;;;;;4976628;28;20509;-89
2022/03/10 08:01:18;;;;;;;27.08;15.63;;;7.70;81.00;;;;;;4994179;28;20023;-88
2022/03/10 08:03:47;;;;;;;24.55;15.32;;;7.70;80.90;;;;;;4994414;28;20057;-89
2022/03/10 08:06:12;;;;;;;24.83;15.35;;;7.80;80.90;;;;;;4976669;28;20022;-88
2022/03/10 08:08:38;;;;;;;25.60;15.55;;;7.90;80.90;;;;;;4976654;28;20078;-89
2022/03/10 08:11:08;;;;;;;24.75;15.23;;;7.90;80.90;;;;;;4976881;28;20039;-89
2022/03/10 08:13:34;;;;;;;24.63;15.00;;;7.90;80.70;;;;;;4976401;28;20122;-89
2022/03/10 08:16:00;;;;;;;26.95;15.35;;;8.00;80.80;;;;;;4976884;28;20117;-89
2022/03/10 08:18:27;;;;;;;22.90;14.88;;;8.00;80.80;;;;;;4976570;28;20033;-89
2022/03/10 08:20:55;;;;;;;26.38;14.88;;;8.10;80.70;;;;;;4994457;28;20513;-89
2022/03/10 08:23:21;;;;;;;24.58;15.38;;;8.10;80.70;;;;;;4976781;28;20474;-89
2022/03/10 08:25:47;;;;;;;22.70;13.93;;;8.20;80.80;;;;;;4976769;28;20031;-89
2022/03/10 08:28:13;;;;;;;23.42;14.63;;;8.20;80.70;;;;;;4977569;28;20019;-88
2022/03/10 08:30:39;;;;;;;24.80;15.07;;;8.20;80.80;;;;;;4993828;28;20023;-88
2022/03/10 08:33:05;;;;;;;23.23;14.35;;;8.20;80.80;;;;;;4976632;28;20082;-88
2022/03/10 08:35:31;;;;;;;23.55;15.15;;;8.20;80.80;;;;;;4976572;28;20438;-88
2022/03/10 08:37:57;;;;;;;23.70;14.25;;;8.30;80.80;;;;;;4993977;28;20027;-88
2022/03/10 08:40:23;;;;;;;24.90;14.77;;;8.30;80.90;;;;;;4993866;28;20113;-88
2022/03/10 08:42:50;;;;;;;27.90;14.70;;;8.40;80.90;;;;;;4976384;28;20109;-88
2022/03/10 08:45:15;;;;;;;22.85;14.30;;;8.40;80.90;;;;;;4976484;28;20026;-88
2022/03/10 08:47:42;;;;;;;25.50;14.50;;;8.40;80.90;;;;;;4993806;28;20023;-88
2022/03/10 08:50:09;;;;;;;26.52;14.70;;;8.40;81.10;;;;;;4976222;28;20030;-89
2022/03/10 08:52:35;;;;;;;24.10;14.20;;;8.50;81.00;;;;;;4976245;28;20050;-88
2022/03/10 08:55:01;;;;;;;20.30;13.38;;;8.50;81.00;;;;;;4993592;28;20082;-88
2022/03/10 08:57:26;;;;;;;20.85;13.23;;;8.60;81.20;;;;;;4976378;28;20037;-87
2022/03/10 08:59:52;;;;;;;20.52;12.20;;;8.60;81.20;;;;;;4993599;28;20068;-88
2022/03/10 09:02:18;;;;;;;23.42;12.40;;;8.60;81.10;;;;;;4976132;28;20385;-88
2022/03/10 09:04:44;;;;;;;18.85;11.27;;;8.60;81.10;;;;;;4976161;28;20023;-88
2022/03/10 09:07:10;;;;;;;20.98;12.80;;;8.60;81.00;;;;;;4976926;28;20355;-88
2022/03/10 09:09:35;;;;;;;17.55;11.75;;;8.70;81.00;;;;;;4993533;28;20479;-88
2022/03/10 09:12:01;;;;;;;18.83;10.77;;;8.70;80.90;;;;;;4976128;28;20050;-88
2022/03/10 09:14:27;;;;;;;17.48;10.55;;;8.70;81.00;;;;;;4975923;28;20065;-88
2022/03/10 09:16:54;;;;;;;17.95;11.45;;;8.80;81.10;;;;;;4976037;28;20018;-89
2022/03/10 09:19:20;;;;;;;21.30;10.75;;;8.80;81.00;;;;;;4975780;28;20074;-88
2022/03/10 09:21:46;;;;;;;22.15;10.70;;;8.80;81.00;;;;;;4993428;28;20070;-88
2022/03/10 09:24:12;;;;;;;17.92;10.32;;;8.80;80.80;;;;;;4975944;28;20018;-88
2022/03/10 09:26:38;;;;;;;18.13;10.50;;;8.80;80.70;;;;;;4995334;28;20026;-88
2022/03/10 09:29:05;;;;;;;16.45;10.10;;;8.80;80.70;;;;;;4996870;28;20386;-87
2022/03/10 09:31:31;;;;;;;17.25;10.15;;;8.90;80.90;;;;;;4996715;28;20031;-88
2022/03/10 09:33:57;;;;;;;15.68;10.10;;;8.90;80.90;;;;;;4979319;28;20037;-88
2022/03/10 09:36:23;;;;;;;16.42;9.77;;;8.90;80.80;;;;;;4996670;28;20018;-88
2022/03/10 09:38:49;;;;;;;17.23;9.18;;;8.90;80.70;;;;;;4979214;28;20034;-88
2022/03/10 09:41:17;;;;;;;15.77;8.90;;;9.00;80.80;;;;;;4979142;28;20109;-88
2022/03/10 09:43:42;;;;;;;14.63;8.80;;;9.00;80.80;;;;;;4979197;28;20561;-88
2022/03/10 09:46:09;;;;;;;15.90;9.10;;;9.10;80.80;;;;;;4980122;28;20118;-88
2022/03/10 09:48:36;;;;;;;15.35;8.63;;;9.10;80.70;;;;;;4979320;28;20113;-88
2022/03/10 09:51:04;;;;;;;13.82;8.68;;;9.10;80.70;;;;;;4979054;28;20442;-88
2022/03/10 09:53:31;;;;;;;11.32;7.45;;;9.10;80.70;;;;;;4978880;28;20054;-88
2022/03/10 09:55:58;;;;;;;20.52;8.18;;;9.20;80.80;;;;;;4978958;28;20034;-88
2022/03/10 09:58:24;;;;;;;11.95;7.20;;;9.20;80.70;;;;;;4978974;28;20042;-87
2022/03/10 10:00:49;;;;;;;12.15;7.25;;;9.20;80.70;;;;;;4996240;28;20072;-88
2022/03/10 10:03:15;;;;;;;16.77;7.47;;;9.20;80.60;;;;;;4996242;28;20045;-86
2022/03/10 10:05:41;;;;;;;13.05;7.20;;;9.30;80.60;;;;;;4996237;28;20044;-86
2022/03/10 10:08:19;;;;;;;12.80;6.63;;;9.30;80.50;;;;;;4995906;28;20106;-86
2022/03/10 10:10:45;;;;;;;10.77;6.55;;;9.30;80.50;;;;;;4978529;28;20488;-84
2022/03/10 10:13:29;;;;;;;10.23;6.95;;;9.30;80.40;;;;;;4995844;28;20026;-88
2022/03/10 10:16:09;;;;;;;12.00;7.28;;;9.40;80.50;;;;;;4978496;28;20026;-88
2022/03/10 10:18:37;;;;;;;12.48;6.68;;;9.40;80.40;;;;;;4978596;28;20123;-87
2022/03/10 10:21:05;;;;;;;11.77;7.28;;;9.40;80.50;;;;;;4978391;28;20041;-87
2022/03/10 10:23:35;;;;;;;13.52;7.13;;;9.50;80.40;;;;;;4978368;28;20494;-88
2022/03/10 10:26:06;;;;;;;13.27;6.93;;;9.50;80.40;;;;;;4995838;28;20443;-88
2022/03/10 10:28:35;;;;;;;11.35;6.57;;;9.50;80.50;;;;;;4978296;28;20390;-88
2022/03/10 10:31:28;;;;;;;12.93;6.50;;;9.50;80.50;;;;;;4978294;28;20113;-88
2022/03/10 10:34:03;;;;;;;10.90;6.57;;;9.50;80.50;;;;;;4974653;28;20034;-88
2022/03/10 10:36:33;;;;;;;10.52;6.10;;;9.60;80.50;;;;;;4978602;28;20026;-88
2022/03/10 10:39:10;;;;;;;11.48;6.05;;;9.60;80.40;;;;;;4978435;28;20034;-87
2022/03/10 10:41:36;;;;;;;14.27;6.70;;;9.60;80.20;;;;;;4977900;28;20033;-88
2022/03/10 10:44:07;;;;;;;10.93;6.43;;;9.60;80.30;;;;;;4978019;28;20029;-87
2022/03/10 10:46:51;;;;;;;9.35;5.07;;;9.70;80.30;;;;;;4995611;28;20034;-88
2022/03/10 10:49:25;;;;;;;11.13;5.60;;;9.70;80.30;;;;;;4978122;28;20084;-88
2022/03/10 10:51:52;;;;;;;12.35;5.85;;;9.70;80.10;;;;;;4977868;28;20030;-87
2022/03/10 10:54:23;;;;;;;10.35;4.75;;;9.70;80.10;;;;;;4977721;28;20069;-88
2022/03/10 10:56:51;;;;;;;10.45;5.38;;;9.70;80.10;;;;;;4977751;28;20029;-87
2022/03/10 10:59:29;;;;;;;9.70;5.13;;;9.80;80.00;;;;;;4995159;28;20038;-86
2022/03/10 11:02:12;;;;;;;7.07;5.00;;;9.80;80.00;;;;;;4977510;28;20054;-87
2022/03/10 11:04:42;;;;;;;8.20;5.07;;;9.80;79.90;;;;;;4994954;28;20034;-87
2022/03/10 11:07:09;;;;;;;8.80;5.25;;;9.80;79.80;;;;;;4994889;28;20030;-87
2022/03/10 11:09:36;;;;;;;7.55;4.95;;;9.90;79.80;;;;;;4977484;28;20367;-87
2022/03/10 11:12:02;;;;;;;7.43;4.57;;;9.90;79.80;;;;;;4994862;28;20077;-88
2022/03/10 11:14:28;;;;;;;10.05;4.60;;;9.90;79.80;;;;;;4977348;28;20026;-88
2022/03/10 11:16:55;;;;;;;10.98;4.35;;;9.90;79.80;;;;;;4977316;28;20026;-88
2022/03/10 11:19:25;;;;;;;7.97;4.53;;;9.90;79.70;;;;;;4976895;28;20038;-87
2022/03/10 11:21:51;;;;;;;5.28;4.20;;;10.00;79.80;;;;;;4977342;28;20034;-87
2022/03/10 11:24:30;;;;;;;6.88;4.28;;;10.00;79.70;;;;;;4994638;28;20034;-87
2022/03/10 11:27:06;;;;;;;9.00;4.22;;;10.00;79.60;;;;;;4977163;28;20118;-87
2022/03/10 11:29:34;;;;;;;7.47;4.30;;;10.10;79.50;;;;;;4977116;28;20023;-86
2022/03/10 11:32:00;;;;;;;7.28;4.07;;;10.10;79.40;;;;;;4976961;28;20029;-87
2022/03/10 11:34:53;;;;;;;6.50;4.20;;;10.10;79.30;;;;;;4976983;28;20022;-86
2022/03/10 11:37:50;;;;;;;6.78;4.25;;;10.10;79.20;;;;;;4976766;28;20030;-87
2022/03/10 11:40:18;;;;;;;7.88;3.78;;;10.10;79.10;;;;;;4993226;28;20494;-87
2022/03/10 11:42:44;;;;;;;7.43;3.80;;;10.20;79.00;;;;;;4976790;28;20023;-87
2022/03/10 11:45:15;;;;;;;5.20;3.40;;;10.20;79.00;;;;;;4994461;28;20022;-87
2022/03/10 11:47:41;;;;;;;8.77;3.97;;;10.20;78.90;;;;;;4976766;28;20113;-87
2022/03/10 11:50:22;;;;;;;6.25;3.70;;;10.20;78.90;;;;;;4976294;28;20125;-87
2022/03/10 11:53:05;;;;;;;4.65;3.40;;;10.30;78.80;;;;;;4976840;28;20076;-87
2022/03/10 11:55:46;;;;;;;6.18;3.60;;;10.30;78.60;;;;;;4994151;28;20049;-86
2022/03/10 11:58:13;;;;;;;5.45;3.50;;;10.30;78.70;;;;;;4976804;28;20030;-87
2022/03/10 12:00:39;;;;;;;5.82;3.50;;;10.30;78.70;;;;;;4976686;28;20030;-87
2022/03/10 12:03:05;;;;;;;5.55;3.10;;;10.30;78.60;;;;;;4976749;28;20126;-87
2022/03/10 12:05:52;;;;;;;4.80;3.25;;;10.30;78.50;;;;;;4976464;28;20026;-87
2022/03/10 12:08:22;;;;;;;5.95;3.22;;;10.30;78.30;;;;;;4976546;28;20018;-86
2022/03/10 12:10:48;;;;;;;5.50;3.13;;;10.30;78.30;;;;;;4976613;28;20521;-87
2022/03/10 12:13:28;;;;;;;4.60;2.97;;;10.30;78.30;;;;;;4993961;28;20022;-88
2022/03/10 12:15:55;;;;;;;5.55;3.15;;;10.40;78.40;;;;;;4994273;28;20030;-88
2022/03/10 12:18:24;;;;;;;4.78;2.90;;;10.40;78.20;;;;;;4993667;28;20032;-87
2022/03/10 12:20:53;;;;;;;4.50;3.08;;;10.40;78.20;;;;;;4976536;28;20105;-87
2022/03/10 12:23:21;;;;;;;4.97;3.20;;;10.40;78.10;;;;;;4976496;28;20026;-87
2022/03/10 12:26:06;;;;;;;7.72;3.03;;;10.50;78.10;;;;;;4993760;28;20018;-87
2022/03/10 12:28:38;;;;;;;6.38;3.13;;;10.50;77.90;;;;;;4993848;28;20065;-88
2022/03/10 12:31:19;;;;;;;4.60;3.25;;;10.60;77.90;;;;;;4976311;28;20505;-87
2022/03/10 12:33:53;;;;;;;9.60;3.42;;;10.60;77.70;;;;;;4993985;28;20022;-88
2022/03/10 12:36:34;;;;;;;6.13;3.03;;;10.60;77.20;;;;;;4976379;28;20026;-87
2022/03/10 12:39:07;;;;;;;9.32;3.10;;;10.60;77.30;;;;;;4994015;28;20078;-87
2022/03/10 12:41:36;;;;;;;6.13;2.63;;;10.70;77.10;;;;;;4976035;28;20054;-85
2022/03/10 12:44:05;;;;;;;9.18;3.25;;;10.80;76.80;;;;;;4976200;28;20026;-87
2022/03/10 12:46:32;;;;;;;5.47;2.83;;;10.90;76.60;;;;;;4976198;28;20050;-88
2022/03/10 12:49:03;;;;;;;4.20;2.80;;;10.90;76.50;;;;;;4993557;28;20102;-87